createdAt,value
2023-04-14T00:04:22.216Z,18.27
2023-04-14T00:09:25.057Z,13.80
2023-04-14T00:14:27.537Z,13.40
2023-04-14T00:19:30.313Z,9.60
2023-04-14T00:24:33.205Z,11.05
2023-04-14T00:29:36.460Z,8.97
2023-04-14T00:34:41.098Z,10.23
2023-04-14T00:39:45.081Z,11.00
2023-04-14T00:44:49.194Z,8.07
2023-04-14T00:49:52.265Z,8.85
2023-04-14T00:54:54.900Z,6.03
2023-04-14T00:59:59.653Z,6.88
2023-04-14T01:05:02.436Z,4.57
2023-04-14T01:10:06.198Z,16.05
2023-04-14T01:15:15.087Z,5.28
2023-04-14T01:20:38.004Z,3.30
2023-04-14T01:26:05.705Z,4.07
2023-04-14T01:31:33.284Z,4.55
2023-04-14T01:36:49.300Z,4.47
2023-04-14T01:41:56.278Z,4.50
2023-04-14T01:47:05.197Z,5.05
2023-04-14T01:52:12.602Z,4.38
2023-04-14T01:57:16.712Z,3.83
2023-04-14T02:02:20.764Z,4.07
2023-04-14T02:07:25.461Z,3.88
2023-04-14T02:12:33.694Z,4.70
2023-04-14T02:17:39.878Z,5.70
2023-04-14T02:22:42.486Z,5.57
2023-04-14T02:27:47.923Z,4.63
2023-04-14T02:32:56.821Z,6.32
2023-04-14T02:38:11.117Z,8.00
2023-04-14T02:43:20.736Z,6.68
2023-04-14T02:48:35.265Z,8.50
2023-04-14T02:53:38.846Z,7.47
2023-04-14T02:58:48.972Z,6.07
2023-04-14T03:03:53.596Z,6.82
2023-04-14T03:09:00.175Z,7.13
2023-04-14T03:14:07.942Z,6.13
2023-04-14T03:19:13.902Z,8.90
2023-04-14T03:24:25.798Z,7.05
2023-04-14T03:29:36.514Z,9.43
2023-04-14T03:34:42.346Z,7.70
2023-04-14T03:39:50.935Z,7.38
2023-04-14T03:44:56.463Z,10.30
2023-04-14T03:50:01.416Z,7.13
2023-04-14T03:55:07.175Z,9.73
2023-04-14T04:00:14.465Z,6.45
2023-04-14T04:05:19.178Z,13.57
2023-04-14T04:10:22.320Z,10.68
2023-04-14T04:15:28.422Z,8.82
2023-04-14T04:20:32.466Z,11.05
2023-04-14T04:25:38.947Z,8.07
2023-04-14T04:30:53.159Z,7.45
2023-04-14T04:35:56.547Z,11.57
2023-04-14T04:41:29.601Z,10.93
2023-04-14T04:46:47.962Z,8.50
2023-04-14T04:51:54.245Z,9.43
2023-04-14T04:56:59.090Z,8.10
2023-04-14T05:02:02.071Z,8.20
2023-04-14T05:07:04.740Z,9.73
2023-04-14T05:12:10.267Z,7.82
2023-04-14T05:17:12.906Z,7.85
2023-04-14T05:22:16.118Z,10.10
2023-04-14T05:27:18.942Z,8.50
2023-04-14T05:32:22.502Z,9.33
2023-04-14T05:42:28.437Z,12.47
2023-04-14T05:47:32.073Z,13.93
2023-04-14T05:52:37.174Z,11.93
2023-04-14T05:57:39.800Z,14.35
2023-04-14T06:02:42.891Z,13.27
2023-04-14T06:07:47.124Z,12.43
2023-04-14T06:12:49.652Z,13.13
2023-04-14T06:17:52.457Z,16.40
2023-04-14T06:22:56.085Z,14.27
2023-04-14T06:33:04.937Z,15.23
2023-04-14T06:38:11.262Z,15.77
2023-04-14T06:43:15.234Z,109.53
2023-04-14T06:48:17.687Z,50.80
2023-04-14T06:53:20.130Z,23.55
2023-04-14T06:58:22.816Z,41.28
2023-04-14T07:03:25.636Z,39.83
2023-04-14T07:08:32.299Z,47.33
2023-04-14T07:13:35.662Z,32.65
2023-04-14T07:18:38.280Z,35.03
2023-04-14T07:23:41.838Z,47.03
2023-04-14T07:28:45.631Z,32.80
2023-04-14T07:33:53.332Z,32.03
2023-04-14T07:38:55.950Z,26.98
2023-04-14T07:44:04.438Z,33.28
2023-04-14T07:49:06.872Z,27.85
2023-04-14T07:54:09.817Z,27.27
2023-04-14T07:59:12.598Z,29.33
2023-04-14T08:04:15.842Z,24.02
2023-04-14T08:09:19.071Z,29.35
2023-04-14T08:14:23.796Z,26.25
2023-04-14T08:19:26.195Z,28.50
2023-04-14T08:24:29.076Z,37.63
2023-04-14T08:29:31.611Z,47.53
2023-04-14T08:34:34.159Z,58.10
2023-04-14T08:39:36.970Z,53.10
2023-04-14T08:44:43.027Z,33.28
2023-04-14T08:50:13.297Z,27.17
2023-04-14T08:55:17.030Z,36.25
2023-04-14T09:00:20.144Z,34.47
2023-04-14T09:05:23.533Z,32.10
2023-04-14T09:10:26.744Z,36.83
2023-04-14T09:20:41.018Z,32.35
2023-04-14T09:25:45.244Z,29.55
2023-04-14T09:30:49.100Z,28.38
2023-04-14T09:35:52.365Z,38.08
2023-04-14T09:40:56.878Z,46.80
2023-04-14T09:46:10.064Z,51.47
2023-04-14T09:51:14.854Z,57.40
2023-04-14T09:56:17.525Z,44.85
2023-04-14T10:01:20.732Z,34.72
2023-04-14T10:06:24.460Z,39.28
2023-04-14T10:11:29.892Z,42.53
2023-04-14T10:16:33.420Z,55.80
2023-04-14T10:21:36.439Z,40.88
2023-04-14T10:26:38.964Z,38.25
2023-04-14T10:31:44.094Z,41.40
2023-04-14T10:36:49.068Z,42.65
2023-04-14T10:41:52.893Z,40.63
2023-04-14T10:46:57.632Z,48.67
2023-04-14T10:52:26.206Z,42.25
2023-04-14T10:57:30.179Z,42.53
2023-04-14T11:02:34.001Z,46.17
2023-04-14T11:07:55.981Z,56.53
2023-04-14T11:13:04.149Z,64.05
2023-04-14T11:18:15.612Z,53.60
2023-04-14T11:23:19.469Z,50.60
2023-04-14T11:28:32.086Z,44.58
2023-04-14T11:33:37.517Z,44.37
2023-04-14T11:38:43.655Z,45.92
2023-04-14T11:43:49.096Z,42.53
2023-04-14T11:48:56.227Z,40.78
2023-04-14T11:54:00.157Z,41.40
2023-04-14T11:59:04.296Z,43.00
2023-04-14T12:04:08.059Z,46.72
2023-04-14T12:09:11.423Z,40.00
2023-04-14T12:14:14.349Z,45.97
2023-04-14T12:19:16.843Z,42.00
2023-04-14T12:24:21.692Z,43.58
2023-04-14T12:29:24.153Z,51.35
2023-04-14T12:34:30.224Z,42.07
2023-04-14T12:39:32.744Z,44.80
2023-04-14T12:44:38.994Z,46.95
2023-04-14T12:49:41.532Z,45.38
2023-04-14T12:54:52.340Z,41.93
2023-04-14T12:59:56.384Z,42.53
2023-04-14T13:04:59.394Z,40.88
2023-04-14T13:10:04.015Z,41.53
2023-04-14T13:15:08.120Z,33.75
2023-04-14T13:20:11.787Z,33.83
2023-04-14T13:25:15.371Z,34.83
2023-04-14T13:30:20.411Z,41.60
2023-04-14T13:35:31.732Z,51.28
2023-04-14T13:40:39.136Z,40.47
2023-04-14T13:45:42.044Z,34.20
2023-04-14T13:50:44.793Z,52.63
2023-04-14T13:55:47.443Z,44.90
2023-04-14T14:00:50.222Z,59.90
2023-04-14T14:06:01.230Z,44.72
2023-04-14T14:11:06.311Z,44.22
2023-04-14T14:16:09.539Z,39.63
2023-04-14T14:21:22.787Z,47.10
2023-04-14T14:26:26.166Z,45.35
2023-04-14T14:31:29.964Z,48.88
2023-04-14T14:36:32.651Z,45.25
2023-04-14T14:41:35.295Z,38.93
2023-04-14T14:46:39.951Z,34.67
2023-04-14T14:51:44.602Z,34.55
2023-04-14T14:56:48.317Z,42.22
2023-04-14T15:01:51.326Z,45.10
2023-04-14T15:06:59.662Z,45.50
2023-04-14T15:12:05.886Z,37.70
2023-04-14T15:17:08.685Z,40.58
2023-04-14T15:22:12.432Z,45.67
2023-04-14T15:27:15.004Z,41.53
2023-04-14T15:32:17.809Z,70.17
2023-04-14T15:37:20.734Z,39.25
2023-04-14T15:42:27.089Z,34.53
2023-04-14T15:47:32.016Z,42.42
2023-04-14T15:52:40.085Z,39.30
2023-04-14T15:57:43.377Z,47.97
2023-04-14T16:02:46.551Z,49.30
2023-04-14T16:12:56.296Z,40.92
2023-04-14T16:18:03.091Z,38.33
2023-04-14T16:28:08.582Z,42.72
2023-04-14T16:33:11.279Z,49.03
2023-04-14T16:38:14.103Z,61.47
2023-04-14T16:43:17.456Z,54.95
2023-04-14T16:53:23.016Z,57.22
2023-04-14T16:58:26.008Z,52.00
2023-04-14T17:03:29.223Z,54.15
2023-04-14T17:08:31.952Z,61.60
2023-04-14T17:13:45.034Z,56.80
2023-04-14T17:18:53.132Z,51.38
2023-04-14T17:23:55.702Z,50.65
2023-04-14T17:28:59.660Z,48.00
2023-04-14T17:34:03.860Z,43.50
2023-04-14T17:39:08.562Z,54.38
2023-04-14T17:44:12.752Z,109.18
2023-04-14T17:49:16.763Z,88.93
2023-04-14T17:54:19.246Z,69.00
2023-04-14T17:59:21.928Z,59.73
2023-04-14T18:04:26.682Z,47.78
2023-04-14T18:09:29.417Z,49.10
2023-04-14T18:14:34.682Z,52.30
2023-04-14T18:19:37.279Z,68.45
2023-04-14T18:29:46.847Z,64.03
2023-04-14T18:34:49.535Z,65.90
2023-04-14T18:39:52.000Z,78.80
2023-04-14T18:44:54.702Z,60.67
2023-04-14T18:49:57.408Z,50.20
2023-04-14T18:55:15.021Z,26.98
2023-04-14T19:00:17.892Z,18.95
2023-04-14T19:05:20.552Z,17.23
2023-04-14T19:10:23.588Z,17.35
2023-04-14T19:15:30.021Z,14.65
2023-04-14T19:20:33.812Z,19.38
2023-04-14T19:25:38.869Z,17.65
2023-04-14T19:30:41.602Z,16.65
2023-04-14T19:35:45.496Z,21.90
2023-04-14T19:40:49.556Z,15.65
2023-04-14T19:45:54.421Z,23.27
2023-04-14T19:55:59.373Z,24.23
2023-04-14T20:01:02.000Z,22.20
2023-04-14T20:06:04.610Z,30.43
2023-04-14T20:11:07.976Z,24.15
2023-04-14T20:16:10.530Z,20.63
2023-04-14T20:21:14.406Z,30.27
2023-04-14T20:26:19.807Z,24.23
2023-04-14T20:31:22.434Z,17.50
2023-04-14T20:36:26.032Z,17.27
2023-04-14T20:41:28.685Z,14.32
2023-04-14T20:46:31.286Z,16.77
2023-04-14T20:51:34.072Z,28.73
2023-04-14T20:56:38.195Z,21.85
2023-04-14T21:01:42.814Z,15.18
2023-04-14T21:06:45.534Z,18.60
2023-04-14T21:11:48.030Z,17.57
2023-04-14T21:17:10.812Z,15.68
2023-04-14T21:22:13.320Z,16.60
2023-04-14T21:27:17.006Z,17.83
2023-04-14T21:32:22.073Z,12.88
2023-04-14T21:37:25.623Z,11.70
2023-04-14T21:42:28.121Z,13.25
2023-04-14T21:47:31.427Z,12.65
2023-04-14T21:52:35.814Z,15.60
2023-04-14T21:57:48.091Z,13.55
2023-04-14T22:02:52.231Z,15.88
2023-04-14T22:07:56.102Z,15.32
2023-04-14T22:13:00.646Z,12.80
2023-04-14T22:18:07.760Z,17.73
2023-04-14T22:23:10.223Z,12.98
2023-04-14T22:28:14.341Z,13.27
2023-04-14T22:33:16.904Z,13.03
2023-04-14T22:38:19.580Z,14.87
2023-04-14T22:43:22.687Z,16.27
2023-04-14T22:48:27.549Z,16.37
2023-04-14T22:53:30.043Z,14.35
2023-04-14T22:58:39.352Z,14.00
2023-04-14T23:03:43.550Z,16.77
2023-04-14T23:08:51.107Z,16.27
2023-04-14T23:13:53.726Z,13.00
2023-04-14T23:18:59.600Z,14.10
2023-04-14T23:24:02.162Z,12.05
2023-04-14T23:29:06.849Z,18.48
2023-04-14T23:34:11.236Z,14.13
2023-04-14T23:39:17.785Z,14.07
2023-04-14T23:44:20.266Z,13.80
2023-04-14T23:49:35.461Z,11.85
2023-04-14T23:54:38.390Z,12.02
2023-04-14T23:59:42.409Z,15.38
